sensor_id;sensor_type;location;lat;lon;timestamp;pressure;altitude;pressure_sealevel;temperature;humidity
73633;BME280;61927;50.080;14.418;2023-05-16T00:01:41;98926.69;;;12.01;73.83
73633;BME280;61927;50.080;14.418;2023-05-16T00:04:06;98924.41;;;11.96;73.43
73633;BME280;61927;50.080;14.418;2023-05-16T00:06:32;98923.91;;;11.91;73.81
73633;BME280;61927;50.080;14.418;2023-05-16T00:08:58;98926.06;;;11.86;74.03
73633;BME280;61927;50.080;14.418;2023-05-16T00:11:24;98929.78;;;11.83;74.08
73633;BME280;61927;50.080;14.418;2023-05-16T00:13:50;98932.56;;;11.82;74.00
73633;BME280;61927;50.080;14.418;2023-05-16T00:16:15;98933.63;;;11.79;73.85
73633;BME280;61927;50.080;14.418;2023-05-16T00:18:41;98934.91;;;11.74;74.21
73633;BME280;61927;50.080;14.418;2023-05-16T00:21:10;98931.28;;;11.75;73.99
73633;BME280;61927;50.080;14.418;2023-05-16T00:23:36;98935.75;;;11.74;74.13
73633;BME280;61927;50.080;14.418;2023-05-16T00:26:01;98938.53;;;11.73;73.98
73633;BME280;61927;50.080;14.418;2023-05-16T00:28:27;98937.69;;;11.72;73.87
73633;BME280;61927;50.080;14.418;2023-05-16T00:30:52;98942.16;;;11.72;74.31
73633;BME280;61927;50.080;14.418;2023-05-16T00:33:18;98946.84;;;11.68;74.19
73633;BME280;61927;50.080;14.418;2023-05-16T00:35:43;98935.72;;;11.63;74.62
73633;BME280;61927;50.080;14.418;2023-05-16T00:38:09;98950.19;;;11.59;74.78
73633;BME280;61927;50.080;14.418;2023-05-16T00:40:35;98944.03;;;11.58;74.94
73633;BME280;61927;50.080;14.418;2023-05-16T00:43:00;98940.75;;;11.55;75.26
73633;BME280;61927;50.080;14.418;2023-05-16T00:45:26;98935.03;;;11.48;75.47
73633;BME280;61927;50.080;14.418;2023-05-16T00:47:52;98938.53;;;11.49;75.17
73633;BME280;61927;50.080;14.418;2023-05-16T00:50:18;98940.47;;;11.47;75.07
73633;BME280;61927;50.080;14.418;2023-05-16T00:52:44;98939.09;;;11.41;75.35
73633;BME280;61927;50.080;14.418;2023-05-16T00:55:10;98936.34;;;11.43;75.45
73633;BME280;61927;50.080;14.418;2023-05-16T00:57:36;98954.31;;;11.39;75.45
73633;BME280;61927;50.080;14.418;2023-05-16T01:00:04;98943.69;;;11.39;75.51
73633;BME280;61927;50.080;14.418;2023-05-16T01:02:33;98946.56;;;11.36;75.41
73633;BME280;61927;50.080;14.418;2023-05-16T01:04:59;98936.56;;;11.40;75.26
73633;BME280;61927;50.080;14.418;2023-05-16T01:07:25;98945.38;;;11.40;75.25
73633;BME280;61927;50.080;14.418;2023-05-16T01:09:51;98934.97;;;11.37;75.23
73633;BME280;61927;50.080;14.418;2023-05-16T01:12:25;98934.03;;;11.38;75.23
73633;BME280;61927;50.080;14.418;2023-05-16T01:15:06;98945.50;;;11.39;75.23
73633;BME280;61927;50.080;14.418;2023-05-16T01:25:52;98953.56;;;11.37;75.13
73633;BME280;61927;50.080;14.418;2023-05-16T01:28:21;98950.91;;;11.37;74.94
73633;BME280;61927;50.080;14.418;2023-05-16T01:30:47;98959.00;;;11.36;74.75
73633;BME280;61927;50.080;14.418;2023-05-16T01:33:15;98954.88;;;11.31;75.28
73633;BME280;61927;50.080;14.418;2023-05-16T01:41:22;98952.84;;;11.35;74.58
73633;BME280;61927;50.080;14.418;2023-05-16T01:43:51;98953.81;;;11.34;75.28
73633;BME280;61927;50.080;14.418;2023-05-16T01:46:24;98950.91;;;11.37;75.08
73633;BME280;61927;50.080;14.418;2023-05-16T01:49:14;98956.34;;;11.36;74.50
73633;BME280;61927;50.080;14.418;2023-05-16T01:51:51;98949.34;;;11.35;74.94
73633;BME280;61927;50.080;14.418;2023-05-16T01:54:19;98952.50;;;11.40;74.78
73633;BME280;61927;50.080;14.418;2023-05-16T01:56:51;98948.03;;;11.40;74.60
73633;BME280;61927;50.080;14.418;2023-05-16T01:59:19;98941.13;;;11.38;74.41
73633;BME280;61927;50.080;14.418;2023-05-16T02:01:46;98952.50;;;11.40;74.17
73633;BME280;61927;50.080;14.418;2023-05-16T02:04:12;98952.63;;;11.38;74.24
73633;BME280;61927;50.080;14.418;2023-05-16T02:06:42;98948.47;;;11.34;74.27
73633;BME280;61927;50.080;14.418;2023-05-16T02:09:09;98952.09;;;11.33;74.34
73633;BME280;61927;50.080;14.418;2023-05-16T02:11:34;98955.50;;;11.35;74.11
73633;BME280;61927;50.080;14.418;2023-05-16T02:14:00;98958.88;;;11.37;74.10
73633;BME280;61927;50.080;14.418;2023-05-16T02:16:25;98962.63;;;11.35;73.85
73633;BME280;61927;50.080;14.418;2023-05-16T02:18:51;98974.53;;;11.29;74.28
73633;BME280;61927;50.080;14.418;2023-05-16T02:21:16;98978.38;;;11.25;74.50
73633;BME280;61927;50.080;14.418;2023-05-16T02:23:42;98983.38;;;11.17;74.50
73633;BME280;61927;50.080;14.418;2023-05-16T02:26:08;98985.28;;;11.15;74.94
73633;BME280;61927;50.080;14.418;2023-05-16T02:28:34;98988.72;;;11.04;75.24
73633;BME280;61927;50.080;14.418;2023-05-16T02:31:00;98983.00;;;10.97;75.55
73633;BME280;61927;50.080;14.418;2023-05-16T02:33:27;98979.06;;;10.90;75.85
73633;BME280;61927;50.080;14.418;2023-05-16T02:35:53;98976.75;;;10.86;76.23
73633;BME280;61927;50.080;14.418;2023-05-16T02:38:19;98981.41;;;10.82;76.67
73633;BME280;61927;50.080;14.418;2023-05-16T02:40:48;98980.69;;;10.80;76.60
73633;BME280;61927;50.080;14.418;2023-05-16T02:43:14;98972.94;;;10.77;76.61
73633;BME280;61927;50.080;14.418;2023-05-16T02:45:40;98964.22;;;10.75;76.75
73633;BME280;61927;50.080;14.418;2023-05-16T02:48:06;98974.97;;;10.74;76.61
73633;BME280;61927;50.080;14.418;2023-05-16T02:50:34;98969.13;;;10.68;77.05
73633;BME280;61927;50.080;14.418;2023-05-16T02:53:00;98969.22;;;10.67;77.15
73633;BME280;61927;50.080;14.418;2023-05-16T02:55:30;98975.28;;;10.69;77.29
73633;BME280;61927;50.080;14.418;2023-05-16T02:57:55;98974.22;;;10.72;77.16
73633;BME280;61927;50.080;14.418;2023-05-16T03:00:21;98981.97;;;10.75;76.83
73633;BME280;61927;50.080;14.418;2023-05-16T03:02:47;98985.25;;;10.78;76.80
73633;BME280;61927;50.080;14.418;2023-05-16T03:05:12;98985.78;;;10.83;76.29
73633;BME280;61927;50.080;14.418;2023-05-16T03:07:38;98989.91;;;10.87;76.23
73633;BME280;61927;50.080;14.418;2023-05-16T03:10:04;98986.31;;;10.88;76.04
73633;BME280;61927;50.080;14.418;2023-05-16T03:12:30;98986.31;;;10.88;75.77
73633;BME280;61927;50.080;14.418;2023-05-16T03:14:56;98985.56;;;10.86;75.65
73633;BME280;61927;50.080;14.418;2023-05-16T03:17:21;98990.88;;;10.86;76.05
73633;BME280;61927;50.080;14.418;2023-05-16T03:19:47;98992.56;;;10.87;75.72
73633;BME280;61927;50.080;14.418;2023-05-16T03:22:13;99001.16;;;10.91;75.95
73633;BME280;61927;50.080;14.418;2023-05-16T03:24:39;99007.09;;;10.94;75.27
73633;BME280;61927;50.080;14.418;2023-05-16T03:27:05;99002.75;;;10.93;74.89
73633;BME280;61927;50.080;14.418;2023-05-16T03:29:30;99007.31;;;10.91;75.03
73633;BME280;61927;50.080;14.418;2023-05-16T03:31:56;99011.78;;;10.91;75.12
73633;BME280;61927;50.080;14.418;2023-05-16T03:34:21;99014.31;;;10.92;75.15
73633;BME280;61927;50.080;14.418;2023-05-16T03:36:48;99014.44;;;10.91;75.55
73633;BME280;61927;50.080;14.418;2023-05-16T03:39:15;99022.28;;;10.92;75.56
73633;BME280;61927;50.080;14.418;2023-05-16T03:41:41;99028.44;;;10.93;75.60
73633;BME280;61927;50.080;14.418;2023-05-16T03:44:06;99025.47;;;10.97;74.84
73633;BME280;61927;50.080;14.418;2023-05-16T03:46:32;99036.31;;;10.94;75.02
73633;BME280;61927;50.080;14.418;2023-05-16T03:48:59;99028.56;;;10.91;75.24
73633;BME280;61927;50.080;14.418;2023-05-16T03:51:24;99040.34;;;10.87;75.67
73633;BME280;61927;50.080;14.418;2023-05-16T03:53:50;99039.59;;;10.85;75.30
73633;BME280;61927;50.080;14.418;2023-05-16T03:56:16;99037.47;;;10.90;75.50
73633;BME280;61927;50.080;14.418;2023-05-16T03:58:41;99045.34;;;10.92;75.66
73633;BME280;61927;50.080;14.418;2023-05-16T04:01:07;99047.78;;;10.95;75.31
73633;BME280;61927;50.080;14.418;2023-05-16T04:03:32;99044.16;;;10.96;75.53
73633;BME280;61927;50.080;14.418;2023-05-16T04:05:58;99043.94;;;10.99;75.15
73633;BME280;61927;50.080;14.418;2023-05-16T04:08:24;99057.34;;;10.97;75.19
73633;BME280;61927;50.080;14.418;2023-05-16T04:10:50;99055.75;;;10.95;75.47
73633;BME280;61927;50.080;14.418;2023-05-16T04:13:16;99058.28;;;10.96;75.22
73633;BME280;61927;50.080;14.418;2023-05-16T04:15:42;99066.03;;;10.99;75.28
73633;BME280;61927;50.080;14.418;2023-05-16T04:18:08;99057.13;;;11.00;75.29
73633;BME280;61927;50.080;14.418;2023-05-16T04:20:34;99062.22;;;11.04;75.33
73633;BME280;61927;50.080;14.418;2023-05-16T04:23:00;99062.75;;;11.09;75.15
73633;BME280;61927;50.080;14.418;2023-05-16T04:25:26;99060.59;;;11.14;74.85
73633;BME280;61927;50.080;14.418;2023-05-16T04:27:52;99070.38;;;11.13;74.71
73633;BME280;61927;50.080;14.418;2023-05-16T04:30:18;99069.75;;;11.10;74.64
73633;BME280;61927;50.080;14.418;2023-05-16T04:32:43;99059.34;;;11.07;74.69
73633;BME280;61927;50.080;14.418;2023-05-16T04:35:09;99064.53;;;11.08;74.98
73633;BME280;61927;50.080;14.418;2023-05-16T04:37:35;99059.88;;;11.12;74.58
73633;BME280;61927;50.080;14.418;2023-05-16T04:40:01;99058.69;;;11.16;74.73
73633;BME280;61927;50.080;14.418;2023-05-16T04:42:26;99072.19;;;11.25;74.17
73633;BME280;61927;50.080;14.418;2023-05-16T04:44:52;99063.34;;;11.38;73.64
73633;BME280;61927;50.080;14.418;2023-05-16T04:47:18;99072.25;;;11.49;72.78
73633;BME280;61927;50.080;14.418;2023-05-16T04:49:44;99070.84;;;11.56;72.52
73633;BME280;61927;50.080;14.418;2023-05-16T04:52:09;99061.34;;;11.65;72.63
73633;BME280;61927;50.080;14.418;2023-05-16T04:54:37;99072.28;;;11.73;72.25
73633;BME280;61927;50.080;14.418;2023-05-16T04:57:03;99068.47;;;11.77;71.96
73633;BME280;61927;50.080;14.418;2023-05-16T04:59:29;99077.81;;;11.83;71.43
73633;BME280;61927;50.080;14.418;2023-05-16T05:01:54;99072.03;;;11.89;71.41
73633;BME280;61927;50.080;14.418;2023-05-16T05:04:20;99074.47;;;11.92;71.62
73633;BME280;61927;50.080;14.418;2023-05-16T05:06:47;99072.91;;;11.89;71.77
73633;BME280;61927;50.080;14.418;2023-05-16T05:09:12;99076.63;;;11.87;71.67
73633;BME280;61927;50.080;14.418;2023-05-16T05:11:38;99083.75;;;11.86;72.11
73633;BME280;61927;50.080;14.418;2023-05-16T05:14:04;99079.28;;;11.87;71.56
73633;BME280;61927;50.080;14.418;2023-05-16T05:16:29;99068.94;;;11.95;71.12
73633;BME280;61927;50.080;14.418;2023-05-16T05:18:55;99071.38;;;11.98;71.47
73633;BME280;61927;50.080;14.418;2023-05-16T05:21:21;99077.66;;;11.97;71.45
73633;BME280;61927;50.080;14.418;2023-05-16T05:23:48;99075.63;;;12.01;71.53
73633;BME280;61927;50.080;14.418;2023-05-16T05:26:14;99067.53;;;12.02;71.40
73633;BME280;61927;50.080;14.418;2023-05-16T05:28:40;99068.16;;;12.06;71.56
73633;BME280;61927;50.080;14.418;2023-05-16T05:31:05;99067.56;;;12.13;71.95
73633;BME280;61927;50.080;14.418;2023-05-16T05:33:32;99065.69;;;12.26;71.09
73633;BME280;61927;50.080;14.418;2023-05-16T05:35:58;99054.25;;;12.37;71.14
73633;BME280;61927;50.080;14.418;2023-05-16T05:38:24;99050.78;;;12.48;70.44
73633;BME280;61927;50.080;14.418;2023-05-16T05:40:49;99053.81;;;12.54;70.16
73633;BME280;61927;50.080;14.418;2023-05-16T05:43:15;99055.16;;;12.60;69.86
73633;BME280;61927;50.080;14.418;2023-05-16T05:45:41;99046.09;;;12.63;69.52
73633;BME280;61927;50.080;14.418;2023-05-16T05:48:07;99045.13;;;12.64;69.13
73633;BME280;61927;50.080;14.418;2023-05-16T05:50:33;99051.06;;;12.67;69.11
73633;BME280;61927;50.080;14.418;2023-05-16T05:52:59;99049.88;;;12.71;68.90
73633;BME280;61927;50.080;14.418;2023-05-16T05:55:24;99045.28;;;12.73;69.16
73633;BME280;61927;50.080;14.418;2023-05-16T05:57:50;99039.84;;;12.75;68.92
73633;BME280;61927;50.080;14.418;2023-05-16T06:00:16;99046.84;;;12.76;68.67
73633;BME280;61927;50.080;14.418;2023-05-16T06:02:42;99047.59;;;12.78;68.72
73633;BME280;61927;50.080;14.418;2023-05-16T06:05:08;99052.31;;;12.85;69.28
73633;BME280;61927;50.080;14.418;2023-05-16T06:07:34;99049.06;;;12.93;68.54
73633;BME280;61927;50.080;14.418;2023-05-16T06:09:59;99052.34;;;12.97;67.95
73633;BME280;61927;50.080;14.418;2023-05-16T06:12:29;99043.84;;;13.03;67.02
73633;BME280;61927;50.080;14.418;2023-05-16T06:14:54;99049.31;;;13.12;67.07
73633;BME280;61927;50.080;14.418;2023-05-16T06:17:21;99053.22;;;13.19;66.95
73633;BME280;61927;50.080;14.418;2023-05-16T06:19:46;99052.13;;;13.33;66.44
73633;BME280;61927;50.080;14.418;2023-05-16T06:22:12;99045.56;;;13.48;66.17
73633;BME280;61927;50.080;14.418;2023-05-16T06:24:38;99048.59;;;13.66;65.54
73633;BME280;61927;50.080;14.418;2023-05-16T06:27:04;99054.63;;;13.79;64.83
73633;BME280;61927;50.080;14.418;2023-05-16T06:29:29;99059.31;;;13.87;64.95
73633;BME280;61927;50.080;14.418;2023-05-16T06:31:55;99053.75;;;13.90;64.51
73633;BME280;61927;50.080;14.418;2023-05-16T06:34:21;99053.88;;;13.88;64.34
73633;BME280;61927;50.080;14.418;2023-05-16T06:36:55;99057.38;;;13.89;64.61
73633;BME280;61927;50.080;14.418;2023-05-16T06:39:20;99059.19;;;13.88;64.32
73633;BME280;61927;50.080;14.418;2023-05-16T06:41:46;99062.34;;;13.94;64.01
73633;BME280;61927;50.080;14.418;2023-05-16T06:44:11;99051.66;;;13.94;63.98
73633;BME280;61927;50.080;14.418;2023-05-16T06:46:37;99058.69;;;13.95;63.93
73633;BME280;61927;50.080;14.418;2023-05-16T06:49:03;99064.28;;;13.92;63.83
73633;BME280;61927;50.080;14.418;2023-05-16T06:51:29;99067.94;;;13.79;64.41
73633;BME280;61927;50.080;14.418;2023-05-16T06:53:56;99062.00;;;13.87;64.80
73633;BME280;61927;50.080;14.418;2023-05-16T06:56:22;99064.50;;;14.00;64.17
73633;BME280;61927;50.080;14.418;2023-05-16T06:58:48;99058.78;;;14.04;63.32
73633;BME280;61927;50.080;14.418;2023-05-16T07:01:15;99064.97;;;14.05;63.40
73633;BME280;61927;50.080;14.418;2023-05-16T07:03:40;99064.84;;;14.06;63.28
73633;BME280;61927;50.080;14.418;2023-05-16T07:06:06;99059.59;;;14.16;63.52
73633;BME280;61927;50.080;14.418;2023-05-16T07:08:32;99067.69;;;14.26;63.17
73633;BME280;61927;50.080;14.418;2023-05-16T07:11:00;99063.28;;;14.36;62.72
73633;BME280;61927;50.080;14.418;2023-05-16T07:13:26;99064.50;;;14.43;62.71
73633;BME280;61927;50.080;14.418;2023-05-16T07:15:52;99067.75;;;14.46;62.74
73633;BME280;61927;50.080;14.418;2023-05-16T07:18:17;99064.56;;;14.52;62.30
73633;BME280;61927;50.080;14.418;2023-05-16T07:20:43;99071.47;;;14.55;61.99
73633;BME280;61927;50.080;14.418;2023-05-16T07:23:09;99067.31;;;14.62;62.01
73633;BME280;61927;50.080;14.418;2023-05-16T07:25:35;99070.50;;;14.56;61.72
73633;BME280;61927;50.080;14.418;2023-05-16T07:28:01;99063.66;;;14.63;61.79
73633;BME280;61927;50.080;14.418;2023-05-16T07:30:27;99068.75;;;14.66;61.81
73633;BME280;61927;50.080;14.418;2023-05-16T07:32:52;99063.53;;;14.65;61.68
73633;BME280;61927;50.080;14.418;2023-05-16T07:35:18;99063.00;;;14.71;61.80
73633;BME280;61927;50.080;14.418;2023-05-16T07:37:44;99066.34;;;14.84;61.80
73633;BME280;61927;50.080;14.418;2023-05-16T07:40:10;99062.59;;;14.96;61.10
73633;BME280;61927;50.080;14.418;2023-05-16T07:42:36;99061.28;;;15.11;60.29
73633;BME280;61927;50.080;14.418;2023-05-16T07:45:02;99065.38;;;15.15;59.91
73633;BME280;61927;50.080;14.418;2023-05-16T07:47:27;99072.88;;;15.22;60.11
73633;BME280;61927;50.080;14.418;2023-05-16T07:49:53;99076.56;;;15.30;60.35
73633;BME280;61927;50.080;14.418;2023-05-16T07:52:19;99078.31;;;15.41;59.40
73633;BME280;61927;50.080;14.418;2023-05-16T07:54:46;99078.75;;;15.46;59.53
73633;BME280;61927;50.080;14.418;2023-05-16T07:57:13;99080.03;;;15.51;58.80
73633;BME280;61927;50.080;14.418;2023-05-16T07:59:40;99089.03;;;15.50;59.44
73633;BME280;61927;50.080;14.418;2023-05-16T08:02:06;99082.31;;;15.56;59.67
73633;BME280;61927;50.080;14.418;2023-05-16T08:04:33;99081.53;;;15.65;58.69
73633;BME280;61927;50.080;14.418;2023-05-16T08:06:58;99085.34;;;15.72;59.03
73633;BME280;61927;50.080;14.418;2023-05-16T08:09:24;99089.88;;;15.81;58.48
73633;BME280;61927;50.080;14.418;2023-05-16T08:11:50;99084.97;;;15.87;58.46
73633;BME280;61927;50.080;14.418;2023-05-16T08:14:16;99098.22;;;15.88;58.01
73633;BME280;61927;50.080;14.418;2023-05-16T08:16:41;99099.34;;;15.95;58.26
73633;BME280;61927;50.080;14.418;2023-05-16T08:19:07;99106.81;;;16.01;57.65
73633;BME280;61927;50.080;14.418;2023-05-16T08:21:32;99104.31;;;16.09;57.75
73633;BME280;61927;50.080;14.418;2023-05-16T08:23:58;99112.34;;;16.19;57.53
73633;BME280;61927;50.080;14.418;2023-05-16T08:26:24;99105.31;;;16.28;56.87
73633;BME280;61927;50.080;14.418;2023-05-16T08:28:49;99114.91;;;16.30;56.93
73633;BME280;61927;50.080;14.418;2023-05-16T08:31:15;99117.44;;;16.32;57.51
73633;BME280;61927;50.080;14.418;2023-05-16T08:33:41;99111.38;;;16.30;56.29
73633;BME280;61927;50.080;14.418;2023-05-16T08:36:08;99109.41;;;16.22;56.82
73633;BME280;61927;50.080;14.418;2023-05-16T08:38:34;99115.44;;;16.05;57.45
73633;BME280;61927;50.080;14.418;2023-05-16T08:41:00;99126.16;;;16.14;57.18
73633;BME280;61927;50.080;14.418;2023-05-16T08:43:26;99125.34;;;16.24;56.62
73633;BME280;61927;50.080;14.418;2023-05-16T08:45:52;99128.16;;;16.32;57.05
73633;BME280;61927;50.080;14.418;2023-05-16T08:48:21;99130.72;;;16.43;56.66
73633;BME280;61927;50.080;14.418;2023-05-16T08:50:47;99118.31;;;16.42;56.06
73633;BME280;61927;50.080;14.418;2023-05-16T08:53:14;99123.94;;;16.39;56.10
73633;BME280;61927;50.080;14.418;2023-05-16T08:55:43;99127.75;;;16.36;56.47
73633;BME280;61927;50.080;14.418;2023-05-16T08:58:11;99123.81;;;16.40;56.92
73633;BME280;61927;50.080;14.418;2023-05-16T09:00:38;99120.56;;;16.56;56.65
73633;BME280;61927;50.080;14.418;2023-05-16T09:03:04;99119.75;;;16.75;55.72
73633;BME280;61927;50.080;14.418;2023-05-16T09:05:30;99128.78;;;16.74;55.64
73633;BME280;61927;50.080;14.418;2023-05-16T09:07:56;99137.75;;;16.54;56.47
73633;BME280;61927;50.080;14.418;2023-05-16T09:10:22;99131.41;;;16.45;57.42
73633;BME280;61927;50.080;14.418;2023-05-16T09:12:47;99133.81;;;16.38;57.72
73633;BME280;61927;50.080;14.418;2023-05-16T09:15:13;99129.31;;;16.58;57.28
73633;BME280;61927;50.080;14.418;2023-05-16T09:17:43;99132.56;;;16.91;57.09
73633;BME280;61927;50.080;14.418;2023-05-16T09:20:09;99130.13;;;17.17;56.58
73633;BME280;61927;50.080;14.418;2023-05-16T09:22:36;99140.00;;;17.16;56.93
73633;BME280;61927;50.080;14.418;2023-05-16T09:25:02;99141.72;;;17.07;57.13
73633;BME280;61927;50.080;14.418;2023-05-16T09:27:32;99138.34;;;16.96;57.72
73633;BME280;61927;50.080;14.418;2023-05-16T09:29:58;99141.72;;;17.07;57.63
73633;BME280;61927;50.080;14.418;2023-05-16T09:32:24;99143.13;;;17.02;56.92
73633;BME280;61927;50.080;14.418;2023-05-16T09:34:52;99136.06;;;17.10;56.86
73633;BME280;61927;50.080;14.418;2023-05-16T09:37:19;99130.41;;;17.23;56.56
73633;BME280;61927;50.080;14.418;2023-05-16T09:39:49;99134.91;;;17.32;55.79
73633;BME280;61927;50.080;14.418;2023-05-16T09:42:17;99121.03;;;17.47;55.84
73633;BME280;61927;50.080;14.418;2023-05-16T09:44:48;99129.44;;;17.61;54.48
73633;BME280;61927;50.080;14.418;2023-05-16T09:47:14;99126.47;;;17.64;53.08
73633;BME280;61927;50.080;14.418;2023-05-16T09:49:50;99126.25;;;17.48;53.47
73633;BME280;61927;50.080;14.418;2023-05-16T09:52:17;99131.47;;;17.50;53.85
73633;BME280;61927;50.080;14.418;2023-05-16T09:54:45;99130.28;;;17.62;53.83
73633;BME280;61927;50.080;14.418;2023-05-16T09:57:17;99130.97;;;17.64;53.22
73633;BME280;61927;50.080;14.418;2023-05-16T09:59:44;99135.75;;;17.80;53.10
73633;BME280;61927;50.080;14.418;2023-05-16T10:02:12;99137.63;;;17.69;53.05
73633;BME280;61927;50.080;14.418;2023-05-16T10:04:38;99129.88;;;17.66;53.60
73633;BME280;61927;50.080;14.418;2023-05-16T10:07:05;99126.59;;;17.63;52.49
73633;BME280;61927;50.080;14.418;2023-05-16T10:09:34;99129.72;;;17.58;52.93
73633;BME280;61927;50.080;14.418;2023-05-16T10:12:01;99125.94;;;17.51;53.16
73633;BME280;61927;50.080;14.418;2023-05-16T10:14:32;99116.59;;;17.55;53.56
73633;BME280;61927;50.080;14.418;2023-05-16T10:16:59;99110.09;;;17.67;53.63
73633;BME280;61927;50.080;14.418;2023-05-16T10:19:25;99098.53;;;17.67;52.99
73633;BME280;61927;50.080;14.418;2023-05-16T10:21:56;99107.81;;;17.72;52.92
73633;BME280;61927;50.080;14.418;2023-05-16T10:24:30;99096.09;;;17.73;53.43
73633;BME280;61927;50.080;14.418;2023-05-16T10:26:57;99099.97;;;17.89;53.60
73633;BME280;61927;50.080;14.418;2023-05-16T10:29:23;99098.09;;;18.17;52.96
73633;BME280;61927;50.080;14.418;2023-05-16T10:31:49;99103.63;;;18.33;52.37
73633;BME280;61927;50.080;14.418;2023-05-16T10:34:15;99103.66;;;18.51;51.40
73633;BME280;61927;50.080;14.418;2023-05-16T10:36:43;99096.38;;;18.61;51.81
73633;BME280;61927;50.080;14.418;2023-05-16T10:39:10;99099.00;;;18.70;51.42
73633;BME280;61927;50.080;14.418;2023-05-16T10:41:37;99106.50;;;18.67;52.05
73633;BME280;61927;50.080;14.418;2023-05-16T10:44:02;99104.59;;;18.77;51.36
73633;BME280;61927;50.080;14.418;2023-05-16T10:46:30;99104.50;;;18.69;52.14
73633;BME280;61927;50.080;14.418;2023-05-16T10:48:56;99099.50;;;18.56;52.42
73633;BME280;61927;50.080;14.418;2023-05-16T10:53:50;99099.13;;;18.33;53.84
73633;BME280;61927;50.080;14.418;2023-05-16T10:56:21;99090.81;;;18.27;53.59
73633;BME280;61927;50.080;14.418;2023-05-16T10:58:47;99083.84;;;18.34;53.14
73633;BME280;61927;50.080;14.418;2023-05-16T11:06:29;99082.53;;;17.65;54.61
73633;BME280;61927;50.080;14.418;2023-05-16T11:17:22;99060.06;;;17.76;54.42
73633;BME280;61927;50.080;14.418;2023-05-16T11:19:54;99076.25;;;17.84;54.21
73633;BME280;61927;50.080;14.418;2023-05-16T11:22:25;99087.44;;;17.80;53.94
73633;BME280;61927;50.080;14.418;2023-05-16T11:25:05;99086.59;;;17.42;54.56
73633;BME280;61927;50.080;14.418;2023-05-16T11:27:32;99087.09;;;17.18;55.95
73633;BME280;61927;50.080;14.418;2023-05-16T11:30:15;99094.28;;;17.18;55.69
73633;BME280;61927;50.080;14.418;2023-05-16T11:32:46;99095.25;;;17.26;55.78
73633;BME280;61927;50.080;14.418;2023-05-16T11:35:16;99107.19;;;17.41;54.88
73633;BME280;61927;50.080;14.418;2023-05-16T11:37:44;99099.34;;;17.30;55.38
73633;BME280;61927;50.080;14.418;2023-05-16T11:40:12;99107.94;;;17.34;55.83
73633;BME280;61927;50.080;14.418;2023-05-16T11:42:43;99113.97;;;17.46;55.12
73633;BME280;61927;50.080;14.418;2023-05-16T11:45:14;99123.38;;;17.59;54.75
73633;BME280;61927;50.080;14.418;2023-05-16T11:47:42;99144.41;;;17.64;54.05
73633;BME280;61927;50.080;14.418;2023-05-16T11:50:15;99156.75;;;17.47;54.13
73633;BME280;61927;50.080;14.418;2023-05-16T11:52:43;99151.47;;;17.08;55.80
73633;BME280;61927;50.080;14.418;2023-05-16T11:55:10;99157.50;;;16.62;56.42
73633;BME280;61927;50.080;14.418;2023-05-16T11:57:39;99171.28;;;16.38;57.39
73633;BME280;61927;50.080;14.418;2023-05-16T12:00:16;99175.50;;;16.31;57.16
73633;BME280;61927;50.080;14.418;2023-05-16T12:02:46;99176.09;;;16.35;57.16
73633;BME280;61927;50.080;14.418;2023-05-16T12:05:13;99185.97;;;16.54;56.98
73633;BME280;61927;50.080;14.418;2023-05-16T12:07:40;99193.88;;;16.55;56.34
73633;BME280;61927;50.080;14.418;2023-05-16T12:10:08;99194.63;;;16.76;56.68
73633;BME280;61927;50.080;14.418;2023-05-16T12:12:35;99199.16;;;17.05;55.64
73633;BME280;61927;50.080;14.418;2023-05-16T12:15:05;99198.44;;;17.13;54.97
73633;BME280;61927;50.080;14.418;2023-05-16T12:17:36;99195.75;;;16.84;55.64
73633;BME280;61927;50.080;14.418;2023-05-16T12:20:03;99204.94;;;16.91;55.87
73633;BME280;61927;50.080;14.418;2023-05-16T12:22:33;99203.38;;;17.07;55.28
73633;BME280;61927;50.080;14.418;2023-05-16T12:24:59;99206.06;;;17.07;55.15
73633;BME280;61927;50.080;14.418;2023-05-16T12:27:25;99215.16;;;16.47;56.10
73633;BME280;61927;50.080;14.418;2023-05-16T12:29:52;99218.59;;;16.19;57.04
73633;BME280;61927;50.080;14.418;2023-05-16T12:32:21;99219.47;;;15.89;57.50
73633;BME280;61927;50.080;14.418;2023-05-16T12:34:51;99220.84;;;15.83;57.59
73633;BME280;61927;50.080;14.418;2023-05-16T12:37:18;99218.06;;;15.64;58.24
73633;BME280;61927;50.080;14.418;2023-05-16T12:39:43;99218.63;;;15.46;58.83
73633;BME280;61927;50.080;14.418;2023-05-16T12:42:12;99201.94;;;15.33;59.08
73633;BME280;61927;50.080;14.418;2023-05-16T12:44:39;99215.06;;;15.36;59.23
73633;BME280;61927;50.080;14.418;2023-05-16T12:47:11;99224.19;;;15.34;59.19
73633;BME280;61927;50.080;14.418;2023-05-16T12:49:44;99221.41;;;14.82;60.64
73633;BME280;61927;50.080;14.418;2023-05-16T12:52:16;99215.84;;;14.74;60.50
73633;BME280;61927;50.080;14.418;2023-05-16T12:54:43;99213.72;;;14.57;60.33
73633;BME280;61927;50.080;14.418;2023-05-16T12:57:09;99210.06;;;14.58;59.97
73633;BME280;61927;50.080;14.418;2023-05-16T12:59:35;99210.94;;;14.36;60.35
73633;BME280;61927;50.080;14.418;2023-05-16T13:02:02;99203.66;;;14.27;61.16
73633;BME280;61927;50.080;14.418;2023-05-16T13:04:28;99203.34;;;14.09;61.60
73633;BME280;61927;50.080;14.418;2023-05-16T13:06:54;99209.75;;;14.07;61.81
73633;BME280;61927;50.080;14.418;2023-05-16T13:09:20;99202.97;;;13.92;62.17
73633;BME280;61927;50.080;14.418;2023-05-16T13:11:46;99196.91;;;13.78;62.24
73633;BME280;61927;50.080;14.418;2023-05-16T13:14:12;99204.81;;;13.80;62.11
73633;BME280;61927;50.080;14.418;2023-05-16T13:16:38;99200.81;;;13.74;62.55
73633;BME280;61927;50.080;14.418;2023-05-16T13:19:03;99199.84;;;13.75;62.64